sensor_id;sensor_type;location;lat;lon;timestamp;P1;durP1;ratioP1;P2;durP2;ratioP2
49444;SDS011;35323;43.080;-81.378;2022-08-19T00:02:15;8.35;;;4.00;;
49444;SDS011;35323;43.080;-81.378;2022-08-19T00:04:44;3.33;;;3.05;;
49444;SDS011;35323;43.080;-81.378;2022-08-19T00:07:15;4.18;;;2.50;;
49444;SDS011;35323;43.080;-81.378;2022-08-19T00:09:43;3.25;;;2.63;;
49444;SDS011;35323;43.080;-81.378;2022-08-19T00:12:11;2.88;;;2.53;;
49444;SDS011;35323;43.080;-81.378;2022-08-19T00:14:41;2.83;;;2.58;;
49444;SDS011;35323;43.080;-81.378;2022-08-19T00:17:08;3.15;;;2.55;;
49444;SDS011;35323;43.080;-81.378;2022-08-19T00:19:36;2.50;;;2.28;;
49444;SDS011;35323;43.080;-81.378;2022-08-19T00:22:04;4.75;;;3.10;;
49444;SDS011;35323;43.080;-81.378;2022-08-19T00:24:32;2.33;;;2.10;;
49444;SDS011;35323;43.080;-81.378;2022-08-19T00:27:00;2.17;;;1.67;;
49444;SDS011;35323;43.080;-81.378;2022-08-19T00:29:48;1.50;;;1.40;;
49444;SDS011;35323;43.080;-81.378;2022-08-19T00:32:18;5.60;;;1.70;;
49444;SDS011;35323;43.080;-81.378;2022-08-19T00:34:46;1.75;;;1.65;;
49444;SDS011;35323;43.080;-81.378;2022-08-19T00:37:13;3.30;;;2.13;;
49444;SDS011;35323;43.080;-81.378;2022-08-19T00:39:41;2.00;;;1.50;;
49444;SDS011;35323;43.080;-81.378;2022-08-19T00:42:09;1.77;;;1.67;;
49444;SDS011;35323;43.080;-81.378;2022-08-19T00:44:36;1.50;;;1.40;;
49444;SDS011;35323;43.080;-81.378;2022-08-19T00:47:04;1.73;;;1.35;;
49444;SDS011;35323;43.080;-81.378;2022-08-19T00:49:50;1.75;;;1.30;;
49444;SDS011;35323;43.080;-81.378;2022-08-19T00:52:26;1.90;;;1.70;;
49444;SDS011;35323;43.080;-81.378;2022-08-19T00:54:56;3.08;;;1.98;;
49444;SDS011;35323;43.080;-81.378;2022-08-19T00:57:30;2.20;;;1.38;;
49444;SDS011;35323;43.080;-81.378;2022-08-19T01:00:01;2.50;;;1.95;;
49444;SDS011;35323;43.080;-81.378;2022-08-19T01:02:29;1.30;;;1.20;;
49444;SDS011;35323;43.080;-81.378;2022-08-19T01:04:57;1.25;;;1.15;;
49444;SDS011;35323;43.080;-81.378;2022-08-19T01:07:27;1.60;;;1.50;;
49444;SDS011;35323;43.080;-81.378;2022-08-19T01:10:09;2.78;;;2.42;;
49444;SDS011;35323;43.080;-81.378;2022-08-19T01:12:38;3.13;;;2.03;;
49444;SDS011;35323;43.080;-81.378;2022-08-19T01:15:07;3.70;;;3.15;;
49444;SDS011;35323;43.080;-81.378;2022-08-19T01:17:36;2.33;;;1.90;;
49444;SDS011;35323;43.080;-81.378;2022-08-19T01:20:05;4.60;;;3.58;;
49444;SDS011;35323;43.080;-81.378;2022-08-19T01:22:35;4.30;;;2.28;;
49444;SDS011;35323;43.080;-81.378;2022-08-19T01:25:07;4.03;;;1.50;;
49444;SDS011;35323;43.080;-81.378;2022-08-19T01:27:42;1.90;;;1.55;;
49444;SDS011;35323;43.080;-81.378;2022-08-19T01:30:19;1.95;;;1.50;;
49444;SDS011;35323;43.080;-81.378;2022-08-19T01:32:49;2.50;;;2.08;;
49444;SDS011;35323;43.080;-81.378;2022-08-19T01:35:20;3.15;;;1.63;;
49444;SDS011;35323;43.080;-81.378;2022-08-19T01:40:19;4.90;;;2.05;;
49444;SDS011;35323;43.080;-81.378;2022-08-19T01:42:48;2.95;;;2.25;;
49444;SDS011;35323;43.080;-81.378;2022-08-19T01:45:17;1.52;;;1.42;;
49444;SDS011;35323;43.080;-81.378;2022-08-19T01:47:45;4.20;;;2.30;;
49444;SDS011;35323;43.080;-81.378;2022-08-19T01:50:28;2.92;;;2.47;;
49444;SDS011;35323;43.080;-81.378;2022-08-19T01:52:56;2.95;;;1.52;;
49444;SDS011;35323;43.080;-81.378;2022-08-19T01:55:31;5.60;;;1.75;;
49444;SDS011;35323;43.080;-81.378;2022-08-19T01:58:00;1.65;;;1.55;;
49444;SDS011;35323;43.080;-81.378;2022-08-19T02:00:29;2.00;;;1.63;;
49444;SDS011;35323;43.080;-81.378;2022-08-19T02:02:58;2.08;;;1.85;;
49444;SDS011;35323;43.080;-81.378;2022-08-19T02:05:26;1.95;;;1.85;;
49444;SDS011;35323;43.080;-81.378;2022-08-19T02:07:56;1.92;;;1.77;;
49444;SDS011;35323;43.080;-81.378;2022-08-19T02:10:24;2.85;;;1.83;;
49444;SDS011;35323;43.080;-81.378;2022-08-19T02:12:52;3.05;;;2.78;;
49444;SDS011;35323;43.080;-81.378;2022-08-19T02:15:20;4.05;;;3.65;;
49444;SDS011;35323;43.080;-81.378;2022-08-19T02:17:48;4.10;;;3.75;;
49444;SDS011;35323;43.080;-81.378;2022-08-19T02:25:33;2.13;;;1.88;;
49444;SDS011;35323;43.080;-81.378;2022-08-19T02:28:01;4.65;;;2.15;;
49444;SDS011;35323;43.080;-81.378;2022-08-19T02:30:31;1.50;;;1.40;;
49444;SDS011;35323;43.080;-81.378;2022-08-19T02:32:59;2.35;;;2.03;;
49444;SDS011;35323;43.080;-81.378;2022-08-19T02:35:27;2.25;;;2.05;;
49444;SDS011;35323;43.080;-81.378;2022-08-19T02:37:54;2.08;;;1.55;;
49444;SDS011;35323;43.080;-81.378;2022-08-19T02:43:16;2.38;;;2.17;;
49444;SDS011;35323;43.080;-81.378;2022-08-19T02:45:47;3.78;;;1.85;;
49444;SDS011;35323;43.080;-81.378;2022-08-19T02:48:19;2.88;;;2.20;;
49444;SDS011;35323;43.080;-81.378;2022-08-19T02:50:48;1.95;;;1.52;;
49444;SDS011;35323;43.080;-81.378;2022-08-19T03:04:03;1.88;;;1.25;;
49444;SDS011;35323;43.080;-81.378;2022-08-19T03:06:32;2.10;;;1.67;;
49444;SDS011;35323;43.080;-81.378;2022-08-19T03:08:59;2.25;;;1.50;;
49444;SDS011;35323;43.080;-81.378;2022-08-19T03:11:28;1.90;;;1.73;;
49444;SDS011;35323;43.080;-81.378;2022-08-19T03:13:57;2.83;;;2.03;;
49444;SDS011;35323;43.080;-81.378;2022-08-19T03:16:26;6.40;;;1.70;;
49444;SDS011;35323;43.080;-81.378;2022-08-19T03:18:53;1.75;;;1.65;;
49444;SDS011;35323;43.080;-81.378;2022-08-19T03:21:22;2.58;;;1.60;;
49444;SDS011;35323;43.080;-81.378;2022-08-19T03:23:54;2.67;;;1.63;;
49444;SDS011;35323;43.080;-81.378;2022-08-19T03:26:22;2.63;;;1.65;;
49444;SDS011;35323;43.080;-81.378;2022-08-19T03:28:49;2.92;;;1.45;;
49444;SDS011;35323;43.080;-81.378;2022-08-19T03:31:25;2.50;;;1.90;;
49444;SDS011;35323;43.080;-81.378;2022-08-19T03:34:15;2.13;;;1.52;;
49444;SDS011;35323;43.080;-81.378;2022-08-19T03:36:44;2.35;;;2.08;;
49444;SDS011;35323;43.080;-81.378;2022-08-19T03:39:13;3.47;;;2.22;;
49444;SDS011;35323;43.080;-81.378;2022-08-19T03:41:41;2.92;;;1.85;;
49444;SDS011;35323;43.080;-81.378;2022-08-19T03:44:12;2.05;;;1.50;;
49444;SDS011;35323;43.080;-81.378;2022-08-19T03:46:43;3.80;;;1.83;;
49444;SDS011;35323;43.080;-81.378;2022-08-19T03:49:11;2.63;;;1.90;;
49444;SDS011;35323;43.080;-81.378;2022-08-19T03:51:40;2.85;;;2.05;;
49444;SDS011;35323;43.080;-81.378;2022-08-19T03:54:10;2.65;;;1.25;;
49444;SDS011;35323;43.080;-81.378;2022-08-19T03:56:39;2.08;;;1.48;;
49444;SDS011;35323;43.080;-81.378;2022-08-19T03:59:11;4.40;;;1.85;;
49444;SDS011;35323;43.080;-81.378;2022-08-19T04:04:08;3.03;;;2.25;;
49444;SDS011;35323;43.080;-81.378;2022-08-19T04:06:36;4.53;;;1.90;;
49444;SDS011;35323;43.080;-81.378;2022-08-19T04:09:07;4.53;;;2.20;;
49444;SDS011;35323;43.080;-81.378;2022-08-19T04:11:37;3.55;;;1.55;;
49444;SDS011;35323;43.080;-81.378;2022-08-19T04:14:14;1.73;;;1.63;;
49444;SDS011;35323;43.080;-81.378;2022-08-19T04:16:42;1.85;;;1.50;;
49444;SDS011;35323;43.080;-81.378;2022-08-19T04:19:12;4.85;;;1.95;;
49444;SDS011;35323;43.080;-81.378;2022-08-19T04:21:40;3.28;;;1.90;;
49444;SDS011;35323;43.080;-81.378;2022-08-19T04:24:09;2.20;;;1.70;;
49444;SDS011;35323;43.080;-81.378;2022-08-19T04:26:36;3.22;;;2.22;;
49444;SDS011;35323;43.080;-81.378;2022-08-19T04:29:06;4.90;;;2.13;;
49444;SDS011;35323;43.080;-81.378;2022-08-19T04:31:38;5.50;;;3.85;;
49444;SDS011;35323;43.080;-81.378;2022-08-19T04:34:07;3.58;;;2.28;;
49444;SDS011;35323;43.080;-81.378;2022-08-19T04:36:35;2.22;;;1.58;;
49444;SDS011;35323;43.080;-81.378;2022-08-19T04:39:07;3.10;;;2.25;;
49444;SDS011;35323;43.080;-81.378;2022-08-19T04:41:36;2.78;;;2.03;;
49444;SDS011;35323;43.080;-81.378;2022-08-19T04:44:22;1.80;;;1.30;;
49444;SDS011;35323;43.080;-81.378;2022-08-19T04:46:50;2.72;;;1.65;;
49444;SDS011;35323;43.080;-81.378;2022-08-19T04:49:18;2.28;;;2.08;;
49444;SDS011;35323;43.080;-81.378;2022-08-19T04:51:49;2.00;;;1.65;;
49444;SDS011;35323;43.080;-81.378;2022-08-19T04:54:19;2.15;;;1.55;;
49444;SDS011;35323;43.080;-81.378;2022-08-19T04:57:07;1.67;;;1.55;;
49444;SDS011;35323;43.080;-81.378;2022-08-19T04:59:37;2.45;;;1.55;;
49444;SDS011;35323;43.080;-81.378;2022-08-19T05:02:06;2.83;;;1.73;;
49444;SDS011;35323;43.080;-81.378;2022-08-19T05:04:34;3.63;;;1.65;;
49444;SDS011;35323;43.080;-81.378;2022-08-19T05:07:06;4.03;;;1.70;;
49444;SDS011;35323;43.080;-81.378;2022-08-19T05:09:34;2.33;;;1.73;;
49444;SDS011;35323;43.080;-81.378;2022-08-19T05:12:22;2.60;;;1.50;;
49444;SDS011;35323;43.080;-81.378;2022-08-19T05:14:54;1.60;;;1.50;;
49444;SDS011;35323;43.080;-81.378;2022-08-19T05:17:24;2.92;;;2.00;;
49444;SDS011;35323;43.080;-81.378;2022-08-19T05:19:55;1.98;;;1.60;;
49444;SDS011;35323;43.080;-81.378;2022-08-19T05:22:42;2.85;;;2.42;;
49444;SDS011;35323;43.080;-81.378;2022-08-19T05:25:12;4.65;;;2.08;;
49444;SDS011;35323;43.080;-81.378;2022-08-19T05:27:41;1.70;;;1.50;;
49444;SDS011;35323;43.080;-81.378;2022-08-19T05:30:09;2.53;;;1.98;;
49444;SDS011;35323;43.080;-81.378;2022-08-19T05:32:37;4.20;;;1.58;;
49444;SDS011;35323;43.080;-81.378;2022-08-19T05:35:05;3.63;;;2.13;;
49444;SDS011;35323;43.080;-81.378;2022-08-19T05:37:33;7.10;;;1.98;;
49444;SDS011;35323;43.080;-81.378;2022-08-19T05:40:01;1.75;;;1.60;;
49444;SDS011;35323;43.080;-81.378;2022-08-19T05:42:28;1.67;;;1.48;;
49444;SDS011;35323;43.080;-81.378;2022-08-19T05:44:57;2.42;;;1.92;;
49444;SDS011;35323;43.080;-81.378;2022-08-19T05:47:25;4.63;;;2.67;;
49444;SDS011;35323;43.080;-81.378;2022-08-19T05:49:52;2.10;;;1.70;;
49444;SDS011;35323;43.080;-81.378;2022-08-19T05:52:20;2.05;;;1.63;;
49444;SDS011;35323;43.080;-81.378;2022-08-19T05:54:51;5.03;;;1.85;;
49444;SDS011;35323;43.080;-81.378;2022-08-19T05:57:22;1.67;;;1.40;;
49444;SDS011;35323;43.080;-81.378;2022-08-19T05:59:50;2.17;;;1.95;;
49444;SDS011;35323;43.080;-81.378;2022-08-19T06:02:25;3.15;;;2.63;;
49444;SDS011;35323;43.080;-81.378;2022-08-19T06:04:53;2.03;;;1.80;;
49444;SDS011;35323;43.080;-81.378;2022-08-19T06:07:20;3.00;;;2.50;;
49444;SDS011;35323;43.080;-81.378;2022-08-19T06:09:48;3.35;;;2.17;;
49444;SDS011;35323;43.080;-81.378;2022-08-19T06:12:27;2.53;;;2.33;;
49444;SDS011;35323;43.080;-81.378;2022-08-19T06:14:58;4.65;;;3.00;;
49444;SDS011;35323;43.080;-81.378;2022-08-19T06:17:30;2.42;;;1.90;;
49444;SDS011;35323;43.080;-81.378;2022-08-19T06:19:58;5.00;;;2.00;;
49444;SDS011;35323;43.080;-81.378;2022-08-19T06:22:26;2.15;;;1.95;;
49444;SDS011;35323;43.080;-81.378;2022-08-19T06:24:54;2.58;;;2.33;;
49444;SDS011;35323;43.080;-81.378;2022-08-19T06:27:22;2.88;;;2.67;;
49444;SDS011;35323;43.080;-81.378;2022-08-19T06:29:50;2.30;;;2.10;;
49444;SDS011;35323;43.080;-81.378;2022-08-19T06:32:17;4.47;;;2.33;;
49444;SDS011;35323;43.080;-81.378;2022-08-19T06:34:46;3.50;;;2.58;;
49444;SDS011;35323;43.080;-81.378;2022-08-19T06:37:13;2.47;;;2.28;;
49444;SDS011;35323;43.080;-81.378;2022-08-19T06:39:42;3.15;;;2.03;;
49444;SDS011;35323;43.080;-81.378;2022-08-19T06:42:10;2.70;;;2.50;;
49444;SDS011;35323;43.080;-81.378;2022-08-19T06:44:40;3.85;;;3.15;;
49444;SDS011;35323;43.080;-81.378;2022-08-19T06:47:19;3.50;;;3.20;;
49444;SDS011;35323;43.080;-81.378;2022-08-19T06:49:55;3.35;;;2.95;;
49444;SDS011;35323;43.080;-81.378;2022-08-19T06:52:32;2.88;;;2.55;;
49444;SDS011;35323;43.080;-81.378;2022-08-19T06:55:03;3.55;;;2.72;;
49444;SDS011;35323;43.080;-81.378;2022-08-19T06:57:32;3.38;;;3.08;;
49444;SDS011;35323;43.080;-81.378;2022-08-19T07:00:00;2.80;;;2.42;;
49444;SDS011;35323;43.080;-81.378;2022-08-19T07:02:39;2.30;;;2.10;;
49444;SDS011;35323;43.080;-81.378;2022-08-19T07:05:08;2.97;;;2.25;;
49444;SDS011;35323;43.080;-81.378;2022-08-19T07:07:38;2.08;;;1.88;;
49444;SDS011;35323;43.080;-81.378;2022-08-19T07:10:08;2.17;;;1.98;;
49444;SDS011;35323;43.080;-81.378;2022-08-19T07:12:37;3.72;;;3.10;;
49444;SDS011;35323;43.080;-81.378;2022-08-19T07:15:05;3.05;;;2.47;;
49444;SDS011;35323;43.080;-81.378;2022-08-19T07:17:35;2.83;;;1.85;;
49444;SDS011;35323;43.080;-81.378;2022-08-19T07:20:05;2.42;;;2.22;;
49444;SDS011;35323;43.080;-81.378;2022-08-19T07:22:36;4.03;;;2.45;;
49444;SDS011;35323;43.080;-81.378;2022-08-19T07:25:05;3.58;;;3.22;;
49444;SDS011;35323;43.080;-81.378;2022-08-19T07:27:33;2.92;;;2.65;;
49444;SDS011;35323;43.080;-81.378;2022-08-19T07:30:02;5.63;;;2.40;;
49444;SDS011;35323;43.080;-81.378;2022-08-19T07:32:30;2.20;;;2.00;;
49444;SDS011;35323;43.080;-81.378;2022-08-19T07:34:58;7.05;;;3.53;;
49444;SDS011;35323;43.080;-81.378;2022-08-19T07:37:27;2.53;;;2.25;;
49444;SDS011;35323;43.080;-81.378;2022-08-19T07:39:59;3.33;;;2.90;;
49444;SDS011;35323;43.080;-81.378;2022-08-19T07:42:30;2.43;;;2.20;;
49444;SDS011;35323;43.080;-81.378;2022-08-19T07:44:58;4.82;;;2.63;;
49444;SDS011;35323;43.080;-81.378;2022-08-19T07:47:26;2.80;;;2.38;;
49444;SDS011;35323;43.080;-81.378;2022-08-19T07:50:17;5.32;;;2.72;;
49444;SDS011;35323;43.080;-81.378;2022-08-19T07:52:47;5.28;;;2.50;;
49444;SDS011;35323;43.080;-81.378;2022-08-19T07:55:18;3.70;;;3.33;;
49444;SDS011;35323;43.080;-81.378;2022-08-19T07:58:06;2.28;;;2.15;;
49444;SDS011;35323;43.080;-81.378;2022-08-19T08:00:34;7.22;;;3.75;;
49444;SDS011;35323;43.080;-81.378;2022-08-19T08:03:05;5.68;;;3.60;;
49444;SDS011;35323;43.080;-81.378;2022-08-19T08:05:33;5.22;;;3.20;;
49444;SDS011;35323;43.080;-81.378;2022-08-19T08:08:19;3.15;;;2.80;;
49444;SDS011;35323;43.080;-81.378;2022-08-19T08:10:53;2.20;;;1.98;;
49444;SDS011;35323;43.080;-81.378;2022-08-19T08:13:25;2.35;;;2.15;;
49444;SDS011;35323;43.080;-81.378;2022-08-19T08:16:00;8.30;;;3.08;;
49444;SDS011;35323;43.080;-81.378;2022-08-19T08:18:28;4.30;;;2.70;;
49444;SDS011;35323;43.080;-81.378;2022-08-19T08:20:58;2.78;;;2.53;;
49444;SDS011;35323;43.080;-81.378;2022-08-19T08:23:29;3.38;;;3.08;;
49444;SDS011;35323;43.080;-81.378;2022-08-19T08:25:57;5.57;;;2.78;;
49444;SDS011;35323;43.080;-81.378;2022-08-19T08:28:26;2.75;;;2.05;;
49444;SDS011;35323;43.080;-81.378;2022-08-19T08:30:55;4.57;;;2.58;;
49444;SDS011;35323;43.080;-81.378;2022-08-19T08:33:24;4.85;;;2.40;;
49444;SDS011;35323;43.080;-81.378;2022-08-19T08:36:07;7.25;;;2.97;;
49444;SDS011;35323;43.080;-81.378;2022-08-19T08:38:35;4.18;;;3.03;;
49444;SDS011;35323;43.080;-81.378;2022-08-19T08:41:23;3.63;;;3.33;;
49444;SDS011;35323;43.080;-81.378;2022-08-19T08:43:55;3.30;;;2.95;;
49444;SDS011;35323;43.080;-81.378;2022-08-19T08:51:33;4.55;;;3.67;;
49444;SDS011;35323;43.080;-81.378;2022-08-19T08:54:02;3.60;;;3.17;;
49444;SDS011;35323;43.080;-81.378;2022-08-19T08:56:32;3.70;;;3.40;;
49444;SDS011;35323;43.080;-81.378;2022-08-19T08:59:05;3.40;;;3.05;;
49444;SDS011;35323;43.080;-81.378;2022-08-19T09:01:37;5.85;;;3.30;;
49444;SDS011;35323;43.080;-81.378;2022-08-19T09:04:05;3.45;;;2.85;;
49444;SDS011;35323;43.080;-81.378;2022-08-19T09:06:43;5.43;;;3.55;;
49444;SDS011;35323;43.080;-81.378;2022-08-19T09:09:23;5.30;;;3.15;;
49444;SDS011;35323;43.080;-81.378;2022-08-19T09:12:02;7.43;;;4.35;;
49444;SDS011;35323;43.080;-81.378;2022-08-19T09:14:36;3.67;;;3.25;;
49444;SDS011;35323;43.080;-81.378;2022-08-19T09:17:17;3.30;;;2.80;;
49444;SDS011;35323;43.080;-81.378;2022-08-19T09:22:17;3.55;;;3.25;;
49444;SDS011;35323;43.080;-81.378;2022-08-19T09:24:55;3.55;;;2.67;;
49444;SDS011;35323;43.080;-81.378;2022-08-19T09:27:24;24.35;;;4.35;;
49444;SDS011;35323;43.080;-81.378;2022-08-19T09:30:09;3.20;;;2.88;;
49444;SDS011;35323;43.080;-81.378;2022-08-19T09:32:36;3.22;;;2.42;;
49444;SDS011;35323;43.080;-81.378;2022-08-19T09:35:09;3.55;;;2.97;;
49444;SDS011;35323;43.080;-81.378;2022-08-19T09:37:40;3.80;;;3.30;;
49444;SDS011;35323;43.080;-81.378;2022-08-19T09:40:08;4.05;;;3.00;;
49444;SDS011;35323;43.080;-81.378;2022-08-19T09:42:37;4.97;;;3.17;;
49444;SDS011;35323;43.080;-81.378;2022-08-19T09:45:18;6.60;;;2.65;;
49444;SDS011;35323;43.080;-81.378;2022-08-19T09:47:49;6.50;;;3.45;;
49444;SDS011;35323;43.080;-81.378;2022-08-19T09:50:22;3.83;;;3.42;;
49444;SDS011;35323;43.080;-81.378;2022-08-19T09:52:50;5.50;;;2.88;;
49444;SDS011;35323;43.080;-81.378;2022-08-19T09:55:23;3.78;;;3.47;;
49444;SDS011;35323;43.080;-81.378;2022-08-19T09:57:56;5.20;;;3.33;;
49444;SDS011;35323;43.080;-81.378;2022-08-19T10:00:24;5.93;;;4.28;;
49444;SDS011;35323;43.080;-81.378;2022-08-19T10:02:52;3.53;;;3.00;;
49444;SDS011;35323;43.080;-81.378;2022-08-19T10:05:19;3.33;;;3.08;;
49444;SDS011;35323;43.080;-81.378;2022-08-19T10:08:11;3.83;;;3.30;;
49444;SDS011;35323;43.080;-81.378;2022-08-19T10:10:43;9.10;;;3.40;;
49444;SDS011;35323;43.080;-81.378;2022-08-19T10:13:13;3.05;;;2.67;;
49444;SDS011;35323;43.080;-81.378;2022-08-19T10:15:41;7.65;;;4.03;;
49444;SDS011;35323;43.080;-81.378;2022-08-19T10:18:14;4.50;;;3.15;;
49444;SDS011;35323;43.080;-81.378;2022-08-19T10:20:45;5.70;;;4.15;;
49444;SDS011;35323;43.080;-81.378;2022-08-19T10:23:17;5.03;;;3.80;;
49444;SDS011;35323;43.080;-81.378;2022-08-19T10:25:46;4.65;;;3.03;;
49444;SDS011;35323;43.080;-81.378;2022-08-19T10:28:14;6.28;;;3.38;;
49444;SDS011;35323;43.080;-81.378;2022-08-19T10:30:45;3.92;;;3.20;;
49444;SDS011;35323;43.080;-81.378;2022-08-19T10:33:14;6.43;;;3.92;;
49444;SDS011;35323;43.080;-81.378;2022-08-19T10:36:06;5.85;;;3.53;;
49444;SDS011;35323;43.080;-81.378;2022-08-19T10:38:35;4.75;;;3.08;;
49444;SDS011;35323;43.080;-81.378;2022-08-19T10:41:08;5.75;;;3.15;;
49444;SDS011;35323;43.080;-81.378;2022-08-19T10:43:35;6.70;;;4.45;;
49444;SDS011;35323;43.080;-81.378;2022-08-19T10:46:06;5.88;;;3.42;;
49444;SDS011;35323;43.080;-81.378;2022-08-19T10:48:40;8.40;;;4.18;;
49444;SDS011;35323;43.080;-81.378;2022-08-19T10:51:08;3.28;;;2.60;;
49444;SDS011;35323;43.080;-81.378;2022-08-19T10:53:54;4.43;;;3.10;;
49444;SDS011;35323;43.080;-81.378;2022-08-19T10:56:26;5.53;;;3.92;;
49444;SDS011;35323;43.080;-81.378;2022-08-19T10:59:12;6.32;;;3.65;;
49444;SDS011;35323;43.080;-81.378;2022-08-19T11:01:41;4.70;;;3.72;;
49444;SDS011;35323;43.080;-81.378;2022-08-19T11:04:12;6.15;;;4.40;;
49444;SDS011;35323;43.080;-81.378;2022-08-19T11:06:40;7.53;;;4.35;;
49444;SDS011;35323;43.080;-81.378;2022-08-19T11:09:10;4.85;;;3.90;;
49444;SDS011;35323;43.080;-81.378;2022-08-19T11:11:38;5.88;;;3.85;;
49444;SDS011;35323;43.080;-81.378;2022-08-19T11:14:11;5.05;;;4.13;;
49444;SDS011;35323;43.080;-81.378;2022-08-19T11:16:44;8.43;;;3.20;;
49444;SDS011;35323;43.080;-81.378;2022-08-19T11:19:12;5.60;;;5.00;;
49444;SDS011;35323;43.080;-81.378;2022-08-19T11:21:41;3.35;;;3.00;;
49444;SDS011;35323;43.080;-81.378;2022-08-19T11:24:14;6.78;;;3.45;;
49444;SDS011;35323;43.080;-81.378;2022-08-19T11:26:43;4.45;;;3.80;;
49444;SDS011;35323;43.080;-81.378;2022-08-19T11:29:12;9.30;;;4.30;;
49444;SDS011;35323;43.080;-81.378;2022-08-19T11:31:42;9.75;;;5.15;;
49444;SDS011;35323;43.080;-81.378;2022-08-19T11:34:11;9.57;;;3.88;;
49444;SDS011;35323;43.080;-81.378;2022-08-19T11:36:40;7.00;;;4.13;;
49444;SDS011;35323;43.080;-81.378;2022-08-19T11:39:09;7.05;;;4.57;;
49444;SDS011;35323;43.080;-81.378;2022-08-19T11:41:37;9.93;;;4.97;;
49444;SDS011;35323;43.080;-81.378;2022-08-19T11:44:05;6.28;;;3.35;;
49444;SDS011;35323;43.080;-81.378;2022-08-19T11:46:37;3.45;;;3.15;;
49444;SDS011;35323;43.080;-81.378;2022-08-19T11:49:05;4.53;;;4.13;;
49444;SDS011;35323;43.080;-81.378;2022-08-19T11:51:39;4.53;;;3.63;;
49444;SDS011;35323;43.080;-81.378;2022-08-19T11:54:10;7.18;;;4.97;;
49444;SDS011;35323;43.080;-81.378;2022-08-19T11:56:41;6.57;;;4.68;;
49444;SDS011;35323;43.080;-81.378;2022-08-19T11:59:09;4.57;;;3.88;;
49444;SDS011;35323;43.080;-81.378;2022-08-19T12:01:40;3.58;;;3.28;;
49444;SDS011;35323;43.080;-81.378;2022-08-19T12:04:09;3.80;;;3.40;;
49444;SDS011;35323;43.080;-81.378;2022-08-19T12:06:38;5.82;;;3.42;;
49444;SDS011;35323;43.080;-81.378;2022-08-19T12:09:07;3.22;;;2.92;;
49444;SDS011;35323;43.080;-81.378;2022-08-19T12:11:40;2.78;;;2.58;;
49444;SDS011;35323;43.080;-81.378;2022-08-19T12:14:11;8.82;;;4.18;;
49444;SDS011;35323;43.080;-81.378;2022-08-19T12:16:44;5.05;;;3.75;;
49444;SDS011;35323;43.080;-81.378;2022-08-19T12:19:17;4.43;;;3.70;;
49444;SDS011;35323;43.080;-81.378;2022-08-19T12:21:48;3.15;;;2.60;;
49444;SDS011;35323;43.080;-81.378;2022-08-19T12:24:17;6.35;;;3.55;;
49444;SDS011;35323;43.080;-81.378;2022-08-19T12:26:50;5.25;;;3.70;;
49444;SDS011;35323;43.080;-81.378;2022-08-19T12:29:31;4.82;;;4.35;;
49444;SDS011;35323;43.080;-81.378;2022-08-19T12:31:59;8.70;;;4.18;;
49444;SDS011;35323;43.080;-81.378;2022-08-19T12:34:31;4.32;;;3.50;;
49444;SDS011;35323;43.080;-81.378;2022-08-19T12:37:02;10.20;;;4.50;;
49444;SDS011;35323;43.080;-81.378;2022-08-19T12:39:30;8.55;;;4.50;;
49444;SDS011;35323;43.080;-81.378;2022-08-19T12:42:00;5.40;;;4.57;;
49444;SDS011;35323;43.080;-81.378;2022-08-19T12:44:28;4.82;;;3.90;;
49444;SDS011;35323;43.080;-81.378;2022-08-19T12:46:59;5.85;;;5.18;;
49444;SDS011;35323;43.080;-81.378;2022-08-19T12:49:31;5.82;;;5.10;;
49444;SDS011;35323;43.080;-81.378;2022-08-19T12:52:20;5.97;;;4.97;;
49444;SDS011;35323;43.080;-81.378;2022-08-19T12:54:49;8.40;;;4.50;;
49444;SDS011;35323;43.080;-81.378;2022-08-19T12:57:20;6.32;;;5.72;;
49444;SDS011;35323;43.080;-81.378;2022-08-19T12:59:57;8.10;;;5.32;;
49444;SDS011;35323;43.080;-81.378;2022-08-19T13:02:25;7.70;;;4.93;;
49444;SDS011;35323;43.080;-81.378;2022-08-19T13:04:53;6.57;;;5.32;;
49444;SDS011;35323;43.080;-81.378;2022-08-19T13:07:20;8.00;;;4.55;;
49444;SDS011;35323;43.080;-81.378;2022-08-19T13:09:51;9.02;;;6.03;;
49444;SDS011;35323;43.080;-81.378;2022-08-19T13:12:18;6.78;;;3.85;;
49444;SDS011;35323;43.080;-81.378;2022-08-19T13:14:50;5.45;;;4.88;;
49444;SDS011;35323;43.080;-81.378;2022-08-19T13:17:19;5.07;;;4.07;;
49444;SDS011;35323;43.080;-81.378;2022-08-19T13:19:47;5.50;;;4.85;;
49444;SDS011;35323;43.080;-81.378;2022-08-19T13:22:14;4.93;;;4.43;;
49444;SDS011;35323;43.080;-81.378;2022-08-19T13:24:42;5.38;;;4.82;;
49444;SDS011;35323;43.080;-81.378;2022-08-19T13:27:13;4.68;;;3.88;;
49444;SDS011;35323;43.080;-81.378;2022-08-19T13:29:41;6.95;;;5.00;;
49444;SDS011;35323;43.080;-81.378;2022-08-19T13:32:28;6.07;;;4.28;;
49444;SDS011;35323;43.080;-81.378;2022-08-19T13:35:14;6.05;;;3.55;;
49444;SDS011;35323;43.080;-81.378;2022-08-19T13:37:43;3.33;;;3.03;;
49444;SDS011;35323;43.080;-81.378;2022-08-19T13:40:15;5.55;;;4.30;;
49444;SDS011;35323;43.080;-81.378;2022-08-19T13:42:46;5.20;;;3.83;;
49444;SDS011;35323;43.080;-81.378;2022-08-19T13:45:16;5.05;;;3.15;;
49444;SDS011;35323;43.080;-81.378;2022-08-19T13:47:49;5.47;;;4.43;;
49444;SDS011;35323;43.080;-81.378;2022-08-19T13:50:25;5.85;;;4.10;;
49444;SDS011;35323;43.080;-81.378;2022-08-19T13:52:55;5.78;;;3.58;;
49444;SDS011;35323;43.080;-81.378;2022-08-19T13:55:23;5.90;;;4.60;;
49444;SDS011;35323;43.080;-81.378;2022-08-19T13:57:51;3.42;;;2.33;;
49444;SDS011;35323;43.080;-81.378;2022-08-19T14:00:21;5.22;;;3.45;;
49444;SDS011;35323;43.080;-81.378;2022-08-19T14:02:50;7.28;;;3.97;;
49444;SDS011;35323;43.080;-81.378;2022-08-19T14:05:18;4.00;;;2.80;;
49444;SDS011;35323;43.080;-81.378;2022-08-19T14:07:46;4.93;;;3.65;;
49444;SDS011;35323;43.080;-81.378;2022-08-19T14:19:39;2.88;;;2.55;;
49444;SDS011;35323;43.080;-81.378;2022-08-19T14:22:13;3.72;;;3.15;;
49444;SDS011;35323;43.080;-81.378;2022-08-19T14:24:47;4.63;;;2.72;;
49444;SDS011;35323;43.080;-81.378;2022-08-19T14:27:15;2.80;;;2.60;;
49444;SDS011;35323;43.080;-81.378;2022-08-19T14:29:42;3.70;;;2.47;;
49444;SDS011;35323;43.080;-81.378;2022-08-19T14:32:11;5.40;;;2.53;;
49444;SDS011;35323;43.080;-81.378;2022-08-19T14:34:42;5.93;;;3.72;;
49444;SDS011;35323;43.080;-81.378;2022-08-19T14:37:13;2.55;;;2.35;;
49444;SDS011;35323;43.080;-81.378;2022-08-19T14:39:43;3.03;;;2.75;;
49444;SDS011;35323;43.080;-81.378;2022-08-19T14:42:12;3.05;;;2.67;;
49444;SDS011;35323;43.080;-81.378;2022-08-19T14:44:41;2.25;;;2.05;;
49444;SDS011;35323;43.080;-81.378;2022-08-19T14:47:09;3.63;;;2.63;;
49444;SDS011;35323;43.080;-81.378;2022-08-19T14:49:37;3.17;;;2.60;;
49444;SDS011;35323;43.080;-81.378;2022-08-19T14:52:10;2.53;;;2.33;;
49444;SDS011;35323;43.080;-81.378;2022-08-19T14:54:38;4.45;;;2.85;;
49444;SDS011;35323;43.080;-81.378;2022-08-19T14:57:05;3.60;;;2.58;;
49444;SDS011;35323;43.080;-81.378;2022-08-19T14:59:34;6.57;;;2.45;;
49444;SDS011;35323;43.080;-81.378;2022-08-19T15:02:01;4.50;;;2.15;;
49444;SDS011;35323;43.080;-81.378;2022-08-19T15:04:49;3.50;;;2.58;;
49444;SDS011;35323;43.080;-81.378;2022-08-19T15:07:24;3.97;;;2.83;;
49444;SDS011;35323;43.080;-81.378;2022-08-19T15:09:55;2.53;;;2.33;;
49444;SDS011;35323;43.080;-81.378;2022-08-19T15:12:22;2.78;;;2.53;;
49444;SDS011;35323;43.080;-81.378;2022-08-19T15:14:51;3.55;;;2.70;;
49444;SDS011;35323;43.080;-81.378;2022-08-19T15:17:22;5.72;;;2.42;;
49444;SDS011;35323;43.080;-81.378;2022-08-19T15:20:10;3.33;;;2.40;;
49444;SDS011;35323;43.080;-81.378;2022-08-19T15:22:39;4.22;;;2.85;;
49444;SDS011;35323;43.080;-81.378;2022-08-19T15:25:07;3.72;;;2.15;;